sensor_id;sensor_type;location;lat;lon;timestamp;pressure;altitude;pressure_sealevel;temperature;humidity
51195;BME280;37259;49.972;19.850;2022-12-07T00:00:40;98300;;;3.1;89.7
51195;BME280;37259;49.972;19.850;2022-12-07T00:01:41;98300;;;3.1;89.7
51195;BME280;37259;49.972;19.850;2022-12-07T00:02:40;98300;;;3.1;89.7
51195;BME280;37259;49.972;19.850;2022-12-07T00:03:40;98300;;;3.1;89.7
51195;BME280;37259;49.972;19.850;2022-12-07T00:04:40;98300;;;3.1;89.7
51195;BME280;37259;49.972;19.850;2022-12-07T00:05:40;98300;;;3;89.6
51195;BME280;37259;49.972;19.850;2022-12-07T00:06:40;98300;;;3;89.6
51195;BME280;37259;49.972;19.850;2022-12-07T00:07:40;98290;;;3.1;89.7
51195;BME280;37259;49.972;19.850;2022-12-07T00:08:40;98290;;;3;89.7
51195;BME280;37259;49.972;19.850;2022-12-07T00:09:40;98290;;;3;89.7
51195;BME280;37259;49.972;19.850;2022-12-07T00:10:40;98290;;;3;89.7
51195;BME280;37259;49.972;19.850;2022-12-07T00:11:40;98300;;;3;89.7
51195;BME280;37259;49.972;19.850;2022-12-07T00:12:40;98300;;;3;89.7
51195;BME280;37259;49.972;19.850;2022-12-07T00:13:40;98300;;;3;89.7
51195;BME280;37259;49.972;19.850;2022-12-07T00:14:40;98300;;;3;89.8
51195;BME280;37259;49.972;19.850;2022-12-07T00:15:40;98300;;;3;89.8
51195;BME280;37259;49.972;19.850;2022-12-07T00:16:40;98300;;;3;89.8
51195;BME280;37259;49.972;19.850;2022-12-07T00:17:40;98300;;;3;89.8
51195;BME280;37259;49.972;19.850;2022-12-07T00:18:40;98300;;;3;89.9
51195;BME280;37259;49.972;19.850;2022-12-07T00:19:40;98300;;;3.1;89.9
51195;BME280;37259;49.972;19.850;2022-12-07T00:20:40;98300;;;3.1;89.9
51195;BME280;37259;49.972;19.850;2022-12-07T00:21:40;98300;;;3.1;89.9
51195;BME280;37259;49.972;19.850;2022-12-07T00:22:40;98300;;;3.1;89.9
51195;BME280;37259;49.972;19.850;2022-12-07T00:23:41;98300;;;3.1;89.9
51195;BME280;37259;49.972;19.850;2022-12-07T00:24:40;98300;;;3.1;89.8
51195;BME280;37259;49.972;19.850;2022-12-07T00:25:40;98300;;;3.1;89.8
51195;BME280;37259;49.972;19.850;2022-12-07T00:26:41;98290;;;3.1;89.8
51195;BME280;37259;49.972;19.850;2022-12-07T00:27:40;98290;;;3.1;89.8
51195;BME280;37259;49.972;19.850;2022-12-07T00:28:40;98290;;;3.1;89.8
51195;BME280;37259;49.972;19.850;2022-12-07T00:29:40;98290;;;3.2;89.8
51195;BME280;37259;49.972;19.850;2022-12-07T00:30:40;98300;;;3.2;89.8
51195;BME280;37259;49.972;19.850;2022-12-07T00:31:40;98300;;;3.2;89.8
51195;BME280;37259;49.972;19.850;2022-12-07T00:32:40;98300;;;3.2;89.8
51195;BME280;37259;49.972;19.850;2022-12-07T00:33:40;98290;;;3.2;89.8
51195;BME280;37259;49.972;19.850;2022-12-07T00:34:40;98290;;;3.2;89.8
51195;BME280;37259;49.972;19.850;2022-12-07T00:35:40;98290;;;3.2;89.8
51195;BME280;37259;49.972;19.850;2022-12-07T00:36:40;98290;;;3.2;89.6
51195;BME280;37259;49.972;19.850;2022-12-07T00:37:40;98290;;;3.2;89.6
51195;BME280;37259;49.972;19.850;2022-12-07T00:38:40;98290;;;3.1;89.6
51195;BME280;37259;49.972;19.850;2022-12-07T00:39:40;98290;;;3.1;89.6
51195;BME280;37259;49.972;19.850;2022-12-07T00:40:40;98290;;;3.1;89.5
51195;BME280;37259;49.972;19.850;2022-12-07T00:41:40;98290;;;3.1;89.6
51195;BME280;37259;49.972;19.850;2022-12-07T00:42:40;98290;;;3.1;89.6
51195;BME280;37259;49.972;19.850;2022-12-07T00:43:40;98290;;;3.1;89.6
51195;BME280;37259;49.972;19.850;2022-12-07T00:44:40;98290;;;3.1;89.6
51195;BME280;37259;49.972;19.850;2022-12-07T00:45:40;98290;;;3.1;89.5
51195;BME280;37259;49.972;19.850;2022-12-07T00:46:40;98290;;;3.1;89.4
51195;BME280;37259;49.972;19.850;2022-12-07T00:47:40;98290;;;3.1;89.4
51195;BME280;37259;49.972;19.850;2022-12-07T00:48:40;98280;;;3;89.5
51195;BME280;37259;49.972;19.850;2022-12-07T00:49:40;98280;;;3;89.5
51195;BME280;37259;49.972;19.850;2022-12-07T00:50:40;98280;;;3;89.6
51195;BME280;37259;49.972;19.850;2022-12-07T00:51:40;98280;;;3.1;89.6
51195;BME280;37259;49.972;19.850;2022-12-07T00:52:40;98280;;;3.1;89.6
51195;BME280;37259;49.972;19.850;2022-12-07T00:53:40;98280;;;3.1;89.6
51195;BME280;37259;49.972;19.850;2022-12-07T00:54:40;98280;;;3.1;89.6
51195;BME280;37259;49.972;19.850;2022-12-07T00:55:40;98280;;;3.1;89.7
51195;BME280;37259;49.972;19.850;2022-12-07T00:56:40;98280;;;3.1;89.7
51195;BME280;37259;49.972;19.850;2022-12-07T00:57:40;98280;;;3.1;89.7
51195;BME280;37259;49.972;19.850;2022-12-07T00:58:40;98280;;;3.1;89.6
51195;BME280;37259;49.972;19.850;2022-12-07T00:59:40;98280;;;3.1;89.6
51195;BME280;37259;49.972;19.850;2022-12-07T01:00:41;98280;;;3.2;89.6
51195;BME280;37259;49.972;19.850;2022-12-07T01:01:40;98280;;;3.2;89.7
51195;BME280;37259;49.972;19.850;2022-12-07T01:02:40;98280;;;3.2;89.7
51195;BME280;37259;49.972;19.850;2022-12-07T01:03:40;98280;;;3.2;89.7
51195;BME280;37259;49.972;19.850;2022-12-07T01:04:40;98280;;;3.2;89.6
51195;BME280;37259;49.972;19.850;2022-12-07T01:05:40;98280;;;3.2;89.6
51195;BME280;37259;49.972;19.850;2022-12-07T01:06:40;98280;;;3.2;89.7
51195;BME280;37259;49.972;19.850;2022-12-07T01:07:40;98280;;;3.2;89.7
51195;BME280;37259;49.972;19.850;2022-12-07T01:08:40;98270;;;3.2;89.6
51195;BME280;37259;49.972;19.850;2022-12-07T01:09:40;98270;;;3.2;89.6
51195;BME280;37259;49.972;19.850;2022-12-07T01:10:40;98270;;;3.2;89.7
51195;BME280;37259;49.972;19.850;2022-12-07T01:11:40;98270;;;3.2;89.7
51195;BME280;37259;49.972;19.850;2022-12-07T01:12:40;98270;;;3.2;89.7
51195;BME280;37259;49.972;19.850;2022-12-07T01:13:40;98270;;;3.3;89.7
51195;BME280;37259;49.972;19.850;2022-12-07T01:14:41;98270;;;3.3;89.7
51195;BME280;37259;49.972;19.850;2022-12-07T01:15:40;98270;;;3.3;89.7
51195;BME280;37259;49.972;19.850;2022-12-07T01:16:40;98270;;;3.3;89.7
51195;BME280;37259;49.972;19.850;2022-12-07T01:17:40;98270;;;3.3;89.7
51195;BME280;37259;49.972;19.850;2022-12-07T01:18:40;98270;;;3.3;89.6
51195;BME280;37259;49.972;19.850;2022-12-07T01:19:40;98260;;;3.3;89.6
51195;BME280;37259;49.972;19.850;2022-12-07T01:20:40;98260;;;3.3;89.6
51195;BME280;37259;49.972;19.850;2022-12-07T01:21:40;98260;;;3.3;89.6
51195;BME280;37259;49.972;19.850;2022-12-07T01:22:40;98260;;;3.3;89.6
51195;BME280;37259;49.972;19.850;2022-12-07T01:23:40;98260;;;3.4;89.5
51195;BME280;37259;49.972;19.850;2022-12-07T01:24:40;98260;;;3.4;89.5
51195;BME280;37259;49.972;19.850;2022-12-07T01:25:40;98260;;;3.4;89.5
51195;BME280;37259;49.972;19.850;2022-12-07T01:26:40;98260;;;3.4;89.5
51195;BME280;37259;49.972;19.850;2022-12-07T01:27:40;98260;;;3.4;89.4
51195;BME280;37259;49.972;19.850;2022-12-07T01:28:40;98260;;;3.4;89.4
51195;BME280;37259;49.972;19.850;2022-12-07T01:29:40;98260;;;3.4;89.5
51195;BME280;37259;49.972;19.850;2022-12-07T01:30:40;98260;;;3.4;89.5
51195;BME280;37259;49.972;19.850;2022-12-07T01:31:40;98260;;;3.4;89.4
51195;BME280;37259;49.972;19.850;2022-12-07T01:32:40;98260;;;3.4;89.4
51195;BME280;37259;49.972;19.850;2022-12-07T01:33:41;98260;;;3.3;89.3
51195;BME280;37259;49.972;19.850;2022-12-07T01:34:40;98260;;;3.3;89.3
51195;BME280;37259;49.972;19.850;2022-12-07T01:35:40;98260;;;3.3;89.3
51195;BME280;37259;49.972;19.850;2022-12-07T01:36:40;98260;;;3.3;89.3
51195;BME280;37259;49.972;19.850;2022-12-07T01:37:40;98260;;;3.3;89.3
51195;BME280;37259;49.972;19.850;2022-12-07T01:38:40;98260;;;3.3;89.3
51195;BME280;37259;49.972;19.850;2022-12-07T01:39:40;98260;;;3.3;89.3
51195;BME280;37259;49.972;19.850;2022-12-07T01:40:40;98260;;;3.3;89.3
51195;BME280;37259;49.972;19.850;2022-12-07T01:41:40;98260;;;3.2;89.3
51195;BME280;37259;49.972;19.850;2022-12-07T01:42:40;98250;;;3.2;89.3
51195;BME280;37259;49.972;19.850;2022-12-07T01:44:06;98250;;;3.2;89.3
51195;BME280;37259;49.972;19.850;2022-12-07T01:45:14;98260;;;3.3;89.3
51195;BME280;37259;49.972;19.850;2022-12-07T01:45:40;98260;;;3.3;89.3
51195;BME280;37259;49.972;19.850;2022-12-07T01:46:40;98250;;;3.3;89.3
51195;BME280;37259;49.972;19.850;2022-12-07T01:47:40;98250;;;3.3;89.3
51195;BME280;37259;49.972;19.850;2022-12-07T01:48:40;98250;;;3.2;89.3
51195;BME280;37259;49.972;19.850;2022-12-07T01:49:40;98250;;;3.2;89.3
51195;BME280;37259;49.972;19.850;2022-12-07T01:50:40;98250;;;3.2;89.3
51195;BME280;37259;49.972;19.850;2022-12-07T01:51:40;98260;;;3.2;89.2
51195;BME280;37259;49.972;19.850;2022-12-07T01:52:40;98260;;;3.2;89.2
51195;BME280;37259;49.972;19.850;2022-12-07T01:53:41;98260;;;3.2;89.2
51195;BME280;37259;49.972;19.850;2022-12-07T01:54:40;98260;;;3.3;89.2
51195;BME280;37259;49.972;19.850;2022-12-07T01:55:42;98260;;;3.3;89.2
51195;BME280;37259;49.972;19.850;2022-12-07T01:56:40;98250;;;3.2;89.1
51195;BME280;37259;49.972;19.850;2022-12-07T01:57:41;98250;;;3.2;89.1
51195;BME280;37259;49.972;19.850;2022-12-07T01:58:40;98250;;;3.2;89
51195;BME280;37259;49.972;19.850;2022-12-07T01:59:40;98250;;;3.2;89
51195;BME280;37259;49.972;19.850;2022-12-07T02:00:40;98250;;;3.2;89
51195;BME280;37259;49.972;19.850;2022-12-07T02:01:40;98250;;;3.2;88.9
51195;BME280;37259;49.972;19.850;2022-12-07T02:02:41;98250;;;3.2;88.9
51195;BME280;37259;49.972;19.850;2022-12-07T02:03:41;98250;;;3.2;88.7
51195;BME280;37259;49.972;19.850;2022-12-07T02:04:40;98250;;;3.2;88.7
51195;BME280;37259;49.972;19.850;2022-12-07T02:05:40;98250;;;3.2;88.7
51195;BME280;37259;49.972;19.850;2022-12-07T02:06:40;98250;;;3.2;88.7
51195;BME280;37259;49.972;19.850;2022-12-07T02:07:40;98250;;;3.2;88.7
51195;BME280;37259;49.972;19.850;2022-12-07T02:08:40;98250;;;3.2;88.7
51195;BME280;37259;49.972;19.850;2022-12-07T02:09:40;98250;;;3.1;88.7
51195;BME280;37259;49.972;19.850;2022-12-07T02:10:40;98250;;;3.1;88.6
51195;BME280;37259;49.972;19.850;2022-12-07T02:11:40;98250;;;3.1;88.6
51195;BME280;37259;49.972;19.850;2022-12-07T02:12:40;98250;;;3.1;88.6
51195;BME280;37259;49.972;19.850;2022-12-07T02:13:40;98240;;;3.1;88.6
51195;BME280;37259;49.972;19.850;2022-12-07T02:14:40;98240;;;3.1;88.6
51195;BME280;37259;49.972;19.850;2022-12-07T02:15:44;98240;;;3.1;88.7
51195;BME280;37259;49.972;19.850;2022-12-07T02:16:43;98240;;;3.1;88.7
51195;BME280;37259;49.972;19.850;2022-12-07T02:17:41;98240;;;3.1;88.7
51195;BME280;37259;49.972;19.850;2022-12-07T02:18:44;98240;;;3.1;88.7
51195;BME280;37259;49.972;19.850;2022-12-07T02:20:15;98240;;;3.1;88.7
51195;BME280;37259;49.972;19.850;2022-12-07T02:20:41;98240;;;3.1;88.7
51195;BME280;37259;49.972;19.850;2022-12-07T02:21:41;98240;;;3.1;88.7
51195;BME280;37259;49.972;19.850;2022-12-07T02:22:46;98240;;;3.1;88.7
51195;BME280;37259;49.972;19.850;2022-12-07T02:23:41;98240;;;3.1;88.7
51195;BME280;37259;49.972;19.850;2022-12-07T02:24:45;98240;;;3.1;88.7
51195;BME280;37259;49.972;19.850;2022-12-07T02:25:45;98250;;;3.1;88.8
51195;BME280;37259;49.972;19.850;2022-12-07T02:26:55;98240;;;3.1;88.8
51195;BME280;37259;49.972;19.850;2022-12-07T02:27:43;98240;;;3.1;88.8
51195;BME280;37259;49.972;19.850;2022-12-07T02:28:47;98240;;;3.1;88.8
51195;BME280;37259;49.972;19.850;2022-12-07T02:29:40;98240;;;3.2;88.8
51195;BME280;37259;49.972;19.850;2022-12-07T02:30:40;98240;;;3.2;88.8
51195;BME280;37259;49.972;19.850;2022-12-07T02:31:42;98240;;;3.2;88.8
51195;BME280;37259;49.972;19.850;2022-12-07T02:32:42;98240;;;3.2;88.7
51195;BME280;37259;49.972;19.850;2022-12-07T02:33:40;98240;;;3.2;88.7
51195;BME280;37259;49.972;19.850;2022-12-07T02:34:42;98240;;;3.2;88.8
51195;BME280;37259;49.972;19.850;2022-12-07T02:35:41;98240;;;3.2;88.8
51195;BME280;37259;49.972;19.850;2022-12-07T02:36:41;98240;;;3.2;88.8
51195;BME280;37259;49.972;19.850;2022-12-07T02:37:41;98240;;;3.2;88.9
51195;BME280;37259;49.972;19.850;2022-12-07T02:38:44;98240;;;3.2;88.9
51195;BME280;37259;49.972;19.850;2022-12-07T02:39:41;98240;;;3.3;88.9
51195;BME280;37259;49.972;19.850;2022-12-07T02:40:41;98240;;;3.3;88.9
51195;BME280;37259;49.972;19.850;2022-12-07T02:41:42;98240;;;3.3;88.8
51195;BME280;37259;49.972;19.850;2022-12-07T02:42:41;98240;;;3.3;88.8
51195;BME280;37259;49.972;19.850;2022-12-07T02:43:41;98240;;;3.3;88.8
51195;BME280;37259;49.972;19.850;2022-12-07T02:44:40;98240;;;3.3;88.8
51195;BME280;37259;49.972;19.850;2022-12-07T02:45:41;98240;;;3.3;88.8
51195;BME280;37259;49.972;19.850;2022-12-07T02:46:40;98240;;;3.3;88.8
51195;BME280;37259;49.972;19.850;2022-12-07T02:47:40;98240;;;3.3;88.7
51195;BME280;37259;49.972;19.850;2022-12-07T02:48:40;98240;;;3.3;88.7
51195;BME280;37259;49.972;19.850;2022-12-07T02:49:40;98240;;;3.3;88.7
51195;BME280;37259;49.972;19.850;2022-12-07T02:50:43;98240;;;3.3;88.7
51195;BME280;37259;49.972;19.850;2022-12-07T02:51:41;98240;;;3.3;88.7
51195;BME280;37259;49.972;19.850;2022-12-07T02:52:40;98240;;;3.3;88.7
51195;BME280;37259;49.972;19.850;2022-12-07T02:53:40;98240;;;3.3;88.7
51195;BME280;37259;49.972;19.850;2022-12-07T02:54:40;98240;;;3.3;88.7
51195;BME280;37259;49.972;19.850;2022-12-07T02:55:40;98240;;;3.3;88.7
51195;BME280;37259;49.972;19.850;2022-12-07T02:56:42;98240;;;3.3;88.7
51195;BME280;37259;49.972;19.850;2022-12-07T02:57:43;98230;;;3.3;88.3
51195;BME280;37259;49.972;19.850;2022-12-07T02:58:43;98230;;;3.3;88.3
51195;BME280;37259;49.972;19.850;2022-12-07T02:59:44;98230;;;3.2;88.4
51195;BME280;37259;49.972;19.850;2022-12-07T03:00:42;98230;;;3.2;88.4
51195;BME280;37259;49.972;19.850;2022-12-07T03:01:41;98220;;;3.2;88.4
51195;BME280;37259;49.972;19.850;2022-12-07T03:02:42;98220;;;3.2;88.4
51195;BME280;37259;49.972;19.850;2022-12-07T03:03:40;98220;;;3.2;88.5
51195;BME280;37259;49.972;19.850;2022-12-07T03:04:42;98220;;;3.3;88.6
51195;BME280;37259;49.972;19.850;2022-12-07T03:05:45;98230;;;3.3;88.7
51195;BME280;37259;49.972;19.850;2022-12-07T03:06:42;98230;;;3.3;88.7
51195;BME280;37259;49.972;19.850;2022-12-07T03:07:42;98230;;;3.2;88.7
51195;BME280;37259;49.972;19.850;2022-12-07T03:08:44;98230;;;3.2;88.7
51195;BME280;37259;49.972;19.850;2022-12-07T03:09:42;98220;;;3.3;88.7
51195;BME280;37259;49.972;19.850;2022-12-07T03:10:42;98220;;;3.3;88.7
51195;BME280;37259;49.972;19.850;2022-12-07T03:11:42;98220;;;3.3;88.7
51195;BME280;37259;49.972;19.850;2022-12-07T03:12:42;98220;;;3.3;88.8
51195;BME280;37259;49.972;19.850;2022-12-07T03:13:41;98220;;;3.2;88.7
51195;BME280;37259;49.972;19.850;2022-12-07T03:14:41;98220;;;3.2;88.7
51195;BME280;37259;49.972;19.850;2022-12-07T03:15:41;98220;;;3.2;88.7
51195;BME280;37259;49.972;19.850;2022-12-07T03:16:41;98220;;;3.2;88.8
51195;BME280;37259;49.972;19.850;2022-12-07T03:17:40;98220;;;3.2;88.8
51195;BME280;37259;49.972;19.850;2022-12-07T03:18:41;98220;;;3.2;88.8
51195;BME280;37259;49.972;19.850;2022-12-07T03:19:40;98220;;;3.2;88.8
51195;BME280;37259;49.972;19.850;2022-12-07T03:20:40;98220;;;3.2;88.9
51195;BME280;37259;49.972;19.850;2022-12-07T03:21:40;98220;;;3.2;88.9
51195;BME280;37259;49.972;19.850;2022-12-07T03:22:40;98220;;;3.2;89
51195;BME280;37259;49.972;19.850;2022-12-07T03:23:40;98220;;;3.2;89
51195;BME280;37259;49.972;19.850;2022-12-07T03:24:41;98220;;;3.2;89
51195;BME280;37259;49.972;19.850;2022-12-07T03:25:40;98220;;;3.2;89
51195;BME280;37259;49.972;19.850;2022-12-07T03:26:41;98220;;;3.2;89
51195;BME280;37259;49.972;19.850;2022-12-07T03:27:41;98220;;;3.2;88.9
51195;BME280;37259;49.972;19.850;2022-12-07T03:28:42;98220;;;3.2;88.9
51195;BME280;37259;49.972;19.850;2022-12-07T03:29:41;98220;;;3.2;88.9
51195;BME280;37259;49.972;19.850;2022-12-07T03:30:42;98220;;;3.2;88.8
51195;BME280;37259;49.972;19.850;2022-12-07T03:31:41;98220;;;3.2;88.8
51195;BME280;37259;49.972;19.850;2022-12-07T03:32:41;98210;;;3.2;88.9
51195;BME280;37259;49.972;19.850;2022-12-07T03:33:42;98210;;;3.2;88.9
51195;BME280;37259;49.972;19.850;2022-12-07T03:34:41;98210;;;3.2;88.9
51195;BME280;37259;49.972;19.850;2022-12-07T03:35:40;98210;;;3.2;88.8
51195;BME280;37259;49.972;19.850;2022-12-07T03:36:40;98210;;;3.2;88.8
51195;BME280;37259;49.972;19.850;2022-12-07T03:37:40;98210;;;3.3;88.8
51195;BME280;37259;49.972;19.850;2022-12-07T03:38:40;98210;;;3.3;88.8
51195;BME280;37259;49.972;19.850;2022-12-07T03:39:41;98210;;;3.2;88.8
51195;BME280;37259;49.972;19.850;2022-12-07T03:40:41;98210;;;3.2;88.8
51195;BME280;37259;49.972;19.850;2022-12-07T03:41:40;98210;;;3.2;88.8
51195;BME280;37259;49.972;19.850;2022-12-07T03:42:40;98210;;;3.3;88.9
51195;BME280;37259;49.972;19.850;2022-12-07T03:43:40;98210;;;3.3;88.9
51195;BME280;37259;49.972;19.850;2022-12-07T03:44:40;98200;;;3.3;88.9
51195;BME280;37259;49.972;19.850;2022-12-07T03:45:41;98200;;;3.3;88.9
51195;BME280;37259;49.972;19.850;2022-12-07T03:46:42;98200;;;3.3;88.8
51195;BME280;37259;49.972;19.850;2022-12-07T03:47:42;98200;;;3.3;88.8
51195;BME280;37259;49.972;19.850;2022-12-07T03:48:41;98200;;;3.3;88.8
51195;BME280;37259;49.972;19.850;2022-12-07T03:49:41;98200;;;3.3;88.8
51195;BME280;37259;49.972;19.850;2022-12-07T03:50:41;98200;;;3.3;88.8
51195;BME280;37259;49.972;19.850;2022-12-07T03:51:41;98200;;;3.3;88.8
51195;BME280;37259;49.972;19.850;2022-12-07T03:52:40;98200;;;3.3;88.7
51195;BME280;37259;49.972;19.850;2022-12-07T03:53:42;98200;;;3.3;88.7
51195;BME280;37259;49.972;19.850;2022-12-07T03:54:41;98200;;;3.2;88.7
51195;BME280;37259;49.972;19.850;2022-12-07T03:55:41;98200;;;3.2;88.7
51195;BME280;37259;49.972;19.850;2022-12-07T03:56:40;98200;;;3.2;88.7
51195;BME280;37259;49.972;19.850;2022-12-07T03:57:40;98200;;;3.2;88.7
51195;BME280;37259;49.972;19.850;2022-12-07T03:58:40;98200;;;3.1;88.7
51195;BME280;37259;49.972;19.850;2022-12-07T03:59:40;98200;;;3.1;88.7
51195;BME280;37259;49.972;19.850;2022-12-07T04:00:40;98190;;;3.1;88.8
51195;BME280;37259;49.972;19.850;2022-12-07T04:01:41;98190;;;3.1;88.8
51195;BME280;37259;49.972;19.850;2022-12-07T04:02:40;98200;;;3.2;88.9
51195;BME280;37259;49.972;19.850;2022-12-07T04:03:40;98200;;;3.2;88.9
51195;BME280;37259;49.972;19.850;2022-12-07T04:04:40;98190;;;3.3;89
51195;BME280;37259;49.972;19.850;2022-12-07T04:05:40;98190;;;3.3;89
51195;BME280;37259;49.972;19.850;2022-12-07T04:06:40;98190;;;3.3;88.9
51195;BME280;37259;49.972;19.850;2022-12-07T04:07:40;98190;;;3.3;88.9
51195;BME280;37259;49.972;19.850;2022-12-07T04:08:40;98190;;;3.3;88.9
51195;BME280;37259;49.972;19.850;2022-12-07T04:09:40;98190;;;3.2;88.8
51195;BME280;37259;49.972;19.850;2022-12-07T04:10:40;98190;;;3.2;88.8
51195;BME280;37259;49.972;19.850;2022-12-07T04:11:40;98190;;;3.2;88.8
51195;BME280;37259;49.972;19.850;2022-12-07T04:12:40;98190;;;3.2;88.8
51195;BME280;37259;49.972;19.850;2022-12-07T04:13:40;98190;;;3.1;89.1
51195;BME280;37259;49.972;19.850;2022-12-07T04:14:40;98190;;;3;89.1
51195;BME280;37259;49.972;19.850;2022-12-07T04:15:40;98190;;;3;89.6
51195;BME280;37259;49.972;19.850;2022-12-07T04:16:40;98190;;;3;89.9
51195;BME280;37259;49.972;19.850;2022-12-07T04:17:40;98190;;;3;89.9
51195;BME280;37259;49.972;19.850;2022-12-07T04:18:40;98190;;;3;89.9
51195;BME280;37259;49.972;19.850;2022-12-07T04:19:40;98190;;;3;90
51195;BME280;37259;49.972;19.850;2022-12-07T04:20:40;98190;;;2.9;90.2
51195;BME280;37259;49.972;19.850;2022-12-07T04:21:40;98190;;;2.9;90.4
51195;BME280;37259;49.972;19.850;2022-12-07T04:22:40;98190;;;2.9;90.4
51195;BME280;37259;49.972;19.850;2022-12-07T04:23:40;98190;;;3;90.6
51195;BME280;37259;49.972;19.850;2022-12-07T04:24:40;98190;;;2.9;90.6
51195;BME280;37259;49.972;19.850;2022-12-07T04:25:40;98190;;;2.9;90.6
51195;BME280;37259;49.972;19.850;2022-12-07T04:26:40;98190;;;3;90.6
51195;BME280;37259;49.972;19.850;2022-12-07T04:27:40;98190;;;3;90.6
51195;BME280;37259;49.972;19.850;2022-12-07T04:28:40;98190;;;3.1;90.5
51195;BME280;37259;49.972;19.850;2022-12-07T04:29:40;98190;;;3.1;90.5
51195;BME280;37259;49.972;19.850;2022-12-07T04:30:40;98190;;;3.1;90.5
51195;BME280;37259;49.972;19.850;2022-12-07T04:31:40;98180;;;3.1;90.4
51195;BME280;37259;49.972;19.850;2022-12-07T04:32:40;98180;;;3.1;90.4
51195;BME280;37259;49.972;19.850;2022-12-07T04:33:40;98180;;;3.2;90.4
51195;BME280;37259;49.972;19.850;2022-12-07T04:34:40;98180;;;3.2;90.4
51195;BME280;37259;49.972;19.850;2022-12-07T04:35:41;98180;;;3.2;90.3
51195;BME280;37259;49.972;19.850;2022-12-07T04:36:40;98170;;;3.2;90.3
51195;BME280;37259;49.972;19.850;2022-12-07T04:37:40;98170;;;3.2;90.3
51195;BME280;37259;49.972;19.850;2022-12-07T04:38:40;98170;;;3.2;90.3
51195;BME280;37259;49.972;19.850;2022-12-07T04:39:40;98170;;;3.2;90.3
51195;BME280;37259;49.972;19.850;2022-12-07T04:40:40;98170;;;3.2;90.2
51195;BME280;37259;49.972;19.850;2022-12-07T04:41:40;98170;;;3.2;90.2
51195;BME280;37259;49.972;19.850;2022-12-07T04:42:40;98180;;;3.2;90.2
51195;BME280;37259;49.972;19.850;2022-12-07T04:43:40;98180;;;3.2;90.2
51195;BME280;37259;49.972;19.850;2022-12-07T04:44:40;98180;;;3.2;90.2
51195;BME280;37259;49.972;19.850;2022-12-07T04:45:44;98180;;;3.2;90.2
51195;BME280;37259;49.972;19.850;2022-12-07T04:46:40;98180;;;3.2;90.1
51195;BME280;37259;49.972;19.850;2022-12-07T04:47:40;98180;;;3.2;90.1
51195;BME280;37259;49.972;19.850;2022-12-07T04:48:40;98180;;;3.3;90.1
51195;BME280;37259;49.972;19.850;2022-12-07T04:49:40;98180;;;3.3;90.1
51195;BME280;37259;49.972;19.850;2022-12-07T04:50:40;98180;;;3.3;90.1
51195;BME280;37259;49.972;19.850;2022-12-07T04:51:40;98190;;;3.3;90.1
51195;BME280;37259;49.972;19.850;2022-12-07T04:52:40;98190;;;3.3;90.1
51195;BME280;37259;49.972;19.850;2022-12-07T04:53:40;98180;;;3.3;90.2
51195;BME280;37259;49.972;19.850;2022-12-07T04:54:40;98180;;;3.3;90.2
51195;BME280;37259;49.972;19.850;2022-12-07T04:55:40;98190;;;3.3;90.2
51195;BME280;37259;49.972;19.850;2022-12-07T04:56:40;98180;;;3.3;90.2
51195;BME280;37259;49.972;19.850;2022-12-07T04:57:40;98180;;;3.3;90.2
51195;BME280;37259;49.972;19.850;2022-12-07T04:58:40;98180;;;3.3;90.2
51195;BME280;37259;49.972;19.850;2022-12-07T04:59:40;98180;;;3.3;90.1
51195;BME280;37259;49.972;19.850;2022-12-07T05:00:40;98180;;;3.3;90.1
51195;BME280;37259;49.972;19.850;2022-12-07T05:01:40;98180;;;3.3;90.1
51195;BME280;37259;49.972;19.850;2022-12-07T05:02:40;98180;;;3.3;90.1
51195;BME280;37259;49.972;19.850;2022-12-07T05:03:40;98180;;;3.3;90.1
51195;BME280;37259;49.972;19.850;2022-12-07T05:04:40;98180;;;3.3;90.2
51195;BME280;37259;49.972;19.850;2022-12-07T05:05:40;98180;;;3.3;90.2
51195;BME280;37259;49.972;19.850;2022-12-07T05:06:40;98180;;;3.3;90.2
51195;BME280;37259;49.972;19.850;2022-12-07T05:07:40;98180;;;3.3;90.2
51195;BME280;37259;49.972;19.850;2022-12-07T05:08:40;98180;;;3.3;90.2
51195;BME280;37259;49.972;19.850;2022-12-07T05:09:40;98180;;;3.3;90.2
51195;BME280;37259;49.972;19.850;2022-12-07T05:10:40;98180;;;3.3;90.3
51195;BME280;37259;49.972;19.850;2022-12-07T05:11:40;98180;;;3.3;90.3
51195;BME280;37259;49.972;19.850;2022-12-07T05:12:40;98180;;;3.4;90.3
51195;BME280;37259;49.972;19.850;2022-12-07T05:13:40;98180;;;3.4;90.2
51195;BME280;37259;49.972;19.850;2022-12-07T05:14:40;98180;;;3.4;90.2
51195;BME280;37259;49.972;19.850;2022-12-07T05:15:40;98180;;;3.4;90.1
51195;BME280;37259;49.972;19.850;2022-12-07T05:16:41;98180;;;3.4;90.1
51195;BME280;37259;49.972;19.850;2022-12-07T05:17:40;98170;;;3.4;90.1
51195;BME280;37259;49.972;19.850;2022-12-07T05:18:40;98180;;;3.4;90.1
51195;BME280;37259;49.972;19.850;2022-12-07T05:19:40;98180;;;3.4;90.1
51195;BME280;37259;49.972;19.850;2022-12-07T05:20:40;98180;;;3.4;90.1
51195;BME280;37259;49.972;19.850;2022-12-07T05:21:40;98180;;;3.3;90
51195;BME280;37259;49.972;19.850;2022-12-07T05:22:40;98180;;;3.4;90
51195;BME280;37259;49.972;19.850;2022-12-07T05:23:40;98180;;;3.4;90
51195;BME280;37259;49.972;19.850;2022-12-07T05:24:40;98180;;;3.3;90
51195;BME280;37259;49.972;19.850;2022-12-07T05:25:40;98180;;;3.3;90
51195;BME280;37259;49.972;19.850;2022-12-07T05:26:40;98180;;;3.3;90
51195;BME280;37259;49.972;19.850;2022-12-07T05:27:40;98180;;;3.3;90
51195;BME280;37259;49.972;19.850;2022-12-07T05:28:40;98180;;;3.4;90.1
51195;BME280;37259;49.972;19.850;2022-12-07T05:29:40;98180;;;3.4;90.1
51195;BME280;37259;49.972;19.850;2022-12-07T05:30:40;98180;;;3.4;90.1
51195;BME280;37259;49.972;19.850;2022-12-07T05:31:40;98180;;;3.3;90.1
51195;BME280;37259;49.972;19.850;2022-12-07T05:32:40;98180;;;3.3;90.1
51195;BME280;37259;49.972;19.850;2022-12-07T05:33:40;98180;;;3.3;90.1
51195;BME280;37259;49.972;19.850;2022-12-07T05:34:40;98190;;;3.4;90.2
51195;BME280;37259;49.972;19.850;2022-12-07T05:35:40;98180;;;3.4;90.2
51195;BME280;37259;49.972;19.850;2022-12-07T05:36:40;98180;;;3.4;90.2
51195;BME280;37259;49.972;19.850;2022-12-07T05:37:40;98190;;;3.3;90.3
51195;BME280;37259;49.972;19.850;2022-12-07T05:38:40;98190;;;3.3;90.3
51195;BME280;37259;49.972;19.850;2022-12-07T05:39:40;98190;;;3.3;90.3
51195;BME280;37259;49.972;19.850;2022-12-07T05:40:40;98190;;;3.3;90.4
51195;BME280;37259;49.972;19.850;2022-12-07T05:41:40;98190;;;3.3;90.4